sensor_id;sensor_type;location;lat;lon;timestamp;pressure;altitude;pressure_sealevel;temperature;humidity
70546;BME280;58098;51.680;5.134;2023-01-23T00:02:25;103645.72;;;0.95;100.00
70546;BME280;58098;51.680;5.134;2023-01-23T00:04:50;103640.63;;;0.97;100.00
70546;BME280;58098;51.680;5.134;2023-01-23T00:07:15;103632.00;;;0.89;100.00
70546;BME280;58098;51.680;5.134;2023-01-23T00:09:41;103638.00;;;0.91;100.00
70546;BME280;58098;51.680;5.134;2023-01-23T00:12:06;103638.84;;;0.88;100.00
70546;BME280;58098;51.680;5.134;2023-01-23T00:14:31;103649.16;;;0.94;100.00
70546;BME280;58098;51.680;5.134;2023-01-23T00:16:57;103639.72;;;0.92;100.00
70546;BME280;58098;51.680;5.134;2023-01-23T00:19:22;103644.91;;;0.99;100.00
70546;BME280;58098;51.680;5.134;2023-01-23T00:21:48;103652.59;;;0.98;100.00
70546;BME280;58098;51.680;5.134;2023-01-23T00:24:13;103646.59;;;0.96;100.00
70546;BME280;58098;51.680;5.134;2023-01-23T00:26:39;103654.31;;;1.00;100.00
70546;BME280;58098;51.680;5.134;2023-01-23T00:29:04;103632.84;;;0.91;100.00
70546;BME280;58098;51.680;5.134;2023-01-23T00:31:32;103652.63;;;1.02;100.00
70546;BME280;58098;51.680;5.134;2023-01-23T00:34:00;103666.34;;;1.01;100.00
70546;BME280;58098;51.680;5.134;2023-01-23T00:36:32;103659.47;;;1.00;100.00
70546;BME280;58098;51.680;5.134;2023-01-23T00:38:57;103656.91;;;0.99;100.00
70546;BME280;58098;51.680;5.134;2023-01-23T00:41:23;103641.44;;;0.91;100.00
70546;BME280;58098;51.680;5.134;2023-01-23T00:43:48;103632.81;;;0.86;100.00
70546;BME280;58098;51.680;5.134;2023-01-23T00:46:16;103649.19;;;1.00;100.00
70546;BME280;58098;51.680;5.134;2023-01-23T00:48:42;103641.50;;;1.03;100.00
70546;BME280;58098;51.680;5.134;2023-01-23T00:51:07;103634.59;;;0.98;100.00
70546;BME280;58098;51.680;5.134;2023-01-23T00:53:32;103635.44;;;0.95;100.00
70546;BME280;58098;51.680;5.134;2023-01-23T00:55:58;103636.31;;;0.96;100.00
70546;BME280;58098;51.680;5.134;2023-01-23T00:58:23;103646.63;;;0.99;100.00
70546;BME280;58098;51.680;5.134;2023-01-23T01:00:48;103632.00;;;0.92;100.00
70546;BME280;58098;51.680;5.134;2023-01-23T01:03:14;103630.31;;;0.95;100.00
70546;BME280;58098;51.680;5.134;2023-01-23T01:05:39;103648.31;;;0.97;100.00
70546;BME280;58098;51.680;5.134;2023-01-23T01:08:05;103642.31;;;0.96;100.00
70546;BME280;58098;51.680;5.134;2023-01-23T01:10:30;103649.22;;;1.02;100.00
70546;BME280;58098;51.680;5.134;2023-01-23T01:12:58;103650.06;;;1.04;100.00
70546;BME280;58098;51.680;5.134;2023-01-23T01:15:24;103625.19;;;0.98;100.00
70546;BME280;58098;51.680;5.134;2023-01-23T01:17:49;103638.94;;;1.02;100.00
70546;BME280;58098;51.680;5.134;2023-01-23T01:20:17;103631.19;;;1.00;100.00
70546;BME280;58098;51.680;5.134;2023-01-23T01:22:43;103631.16;;;0.96;100.00
70546;BME280;58098;51.680;5.134;2023-01-23T01:25:08;103625.16;;;0.94;100.00
70546;BME280;58098;51.680;5.134;2023-01-23T01:27:34;103626.88;;;0.98;100.00
70546;BME280;58098;51.680;5.134;2023-01-23T01:29:59;103619.16;;;0.92;100.00
70546;BME280;58098;51.680;5.134;2023-01-23T01:32:24;103635.47;;;0.98;100.00
70546;BME280;58098;51.680;5.134;2023-01-23T01:34:50;103634.59;;;0.98;100.00
70546;BME280;58098;51.680;5.134;2023-01-23T01:37:16;103609.72;;;0.89;100.00
70546;BME280;58098;51.680;5.134;2023-01-23T01:39:41;103631.19;;;0.97;100.00
70546;BME280;58098;51.680;5.134;2023-01-23T01:42:07;103621.69;;;0.84;100.00
70546;BME280;58098;51.680;5.134;2023-01-23T01:44:57;103654.34;;;0.97;100.00
70546;BME280;58098;51.680;5.134;2023-01-23T01:47:22;103649.16;;;0.96;100.00
70546;BME280;58098;51.680;5.134;2023-01-23T01:49:49;103636.28;;;0.90;100.00
70546;BME280;58098;51.680;5.134;2023-01-23T01:52:16;103652.59;;;0.96;100.00
70546;BME280;58098;51.680;5.134;2023-01-23T01:54:46;103658.59;;;0.97;100.00
70546;BME280;58098;51.680;5.134;2023-01-23T01:57:20;103642.28;;;0.92;100.00
70546;BME280;58098;51.680;5.134;2023-01-23T02:02:34;103658.63;;;1.00;100.00
70546;BME280;58098;51.680;5.134;2023-01-23T02:05:04;103662.91;;;1.01;100.00
70546;BME280;58098;51.680;5.134;2023-01-23T02:07:56;103663.75;;;1.03;100.00
70546;BME280;58098;51.680;5.134;2023-01-23T02:10:23;103655.16;;;0.92;100.00
70546;BME280;58098;51.680;5.134;2023-01-23T02:12:50;103656.00;;;0.94;100.00
70546;BME280;58098;51.680;5.134;2023-01-23T02:15:16;103656.06;;;1.00;100.00
70546;BME280;58098;51.680;5.134;2023-01-23T02:17:43;103655.22;;;1.05;100.00
70546;BME280;58098;51.680;5.134;2023-01-23T02:22:45;103655.22;;;1.05;100.00
70546;BME280;58098;51.680;5.134;2023-01-23T02:27:56;103647.47;;;0.99;100.00
70546;BME280;58098;51.680;5.134;2023-01-23T02:30:22;103638.00;;;0.94;100.00
70546;BME280;58098;51.680;5.134;2023-01-23T02:32:48;103656.91;;;1.03;100.00
70546;BME280;58098;51.680;5.134;2023-01-23T02:35:20;103667.22;;;1.08;100.00
70546;BME280;58098;51.680;5.134;2023-01-23T02:37:51;103668.94;;;1.06;100.00
70546;BME280;58098;51.680;5.134;2023-01-23T02:40:18;103664.66;;;1.08;100.00
70546;BME280;58098;51.680;5.134;2023-01-23T02:42:46;103645.75;;;0.97;100.00
70546;BME280;58098;51.680;5.134;2023-01-23T02:45:12;103656.06;;;1.00;100.00
70546;BME280;58098;51.680;5.134;2023-01-23T02:47:37;103654.31;;;1.00;100.00
70546;BME280;58098;51.680;5.134;2023-01-23T02:50:03;103650.91;;;1.01;100.00
70546;BME280;58098;51.680;5.134;2023-01-23T02:52:28;103653.47;;;1.03;100.00
70546;BME280;58098;51.680;5.134;2023-01-23T02:54:56;103650.91;;;1.01;100.00
70546;BME280;58098;51.680;5.134;2023-01-23T02:57:21;103674.09;;;1.09;100.00
70546;BME280;58098;51.680;5.134;2023-01-23T02:59:46;103684.38;;;1.09;100.00
70546;BME280;58098;51.680;5.134;2023-01-23T03:02:30;103674.03;;;1.03;100.00
70546;BME280;58098;51.680;5.134;2023-01-23T03:04:55;103673.22;;;1.04;100.00
70546;BME280;58098;51.680;5.134;2023-01-23T03:07:21;103657.75;;;0.99;100.00
70546;BME280;58098;51.680;5.134;2023-01-23T03:09:46;103684.38;;;1.09;100.00
70546;BME280;58098;51.680;5.134;2023-01-23T03:12:13;103666.34;;;1.03;100.00
70546;BME280;58098;51.680;5.134;2023-01-23T03:14:39;103660.34;;;1.01;100.00
70546;BME280;58098;51.680;5.134;2023-01-23T03:17:05;103676.66;;;1.10;100.00
70546;BME280;58098;51.680;5.134;2023-01-23T03:19:30;103674.94;;;1.08;100.00
70546;BME280;58098;51.680;5.134;2023-01-23T03:21:56;103664.63;;;1.03;100.00
70546;BME280;58098;51.680;5.134;2023-01-23T03:24:21;103663.78;;;1.06;100.00
70546;BME280;58098;51.680;5.134;2023-01-23T03:26:48;103668.97;;;1.09;100.00
70546;BME280;58098;51.680;5.134;2023-01-23T03:29:22;103667.22;;;1.08;100.00
70546;BME280;58098;51.680;5.134;2023-01-23T03:32:07;103674.13;;;1.12;100.00
70546;BME280;58098;51.680;5.134;2023-01-23T03:34:33;103674.09;;;1.09;100.00
70546;BME280;58098;51.680;5.134;2023-01-23T03:36:59;103671.50;;;1.04;100.00
70546;BME280;58098;51.680;5.134;2023-01-23T03:39:25;103689.56;;;1.12;100.00
70546;BME280;58098;51.680;5.134;2023-01-23T03:42:09;103663.75;;;1.03;100.00
70546;BME280;58098;51.680;5.134;2023-01-23T03:44:35;103668.94;;;1.06;100.00
70546;BME280;58098;51.680;5.134;2023-01-23T03:47:01;103667.22;;;1.08;100.00
70546;BME280;58098;51.680;5.134;2023-01-23T03:49:26;103656.06;;;1.03;100.00
70546;BME280;58098;51.680;5.134;2023-01-23T03:51:52;103669.81;;;1.09;100.00
70546;BME280;58098;51.680;5.134;2023-01-23T03:54:17;103676.63;;;1.03;100.00
70546;BME280;58098;51.680;5.134;2023-01-23T03:56:43;103674.91;;;1.03;100.00
70546;BME280;58098;51.680;5.134;2023-01-23T03:59:08;103675.81;;;1.10;100.00
70546;BME280;58098;51.680;5.134;2023-01-23T04:01:34;103680.94;;;1.10;100.00
70546;BME280;58098;51.680;5.134;2023-01-23T04:04:00;103674.09;;;1.09;100.00
70546;BME280;58098;51.680;5.134;2023-01-23T04:06:26;103663.75;;;1.03;100.00
70546;BME280;58098;51.680;5.134;2023-01-23T04:08:51;103670.66;;;1.07;100.00
70546;BME280;58098;51.680;5.134;2023-01-23T04:11:17;103677.53;;;1.11;100.00
70546;BME280;58098;51.680;5.134;2023-01-23T04:13:44;103672.41;;;1.09;100.00
70546;BME280;58098;51.680;5.134;2023-01-23T04:16:11;103663.78;;;1.04;100.00
70546;BME280;58098;51.680;5.134;2023-01-23T04:18:37;103676.69;;;1.12;100.00
70546;BME280;58098;51.680;5.134;2023-01-23T04:21:03;103658.66;;;1.06;100.00
70546;BME280;58098;51.680;5.134;2023-01-23T04:23:28;103663.78;;;1.06;100.00
70546;BME280;58098;51.680;5.134;2023-01-23T04:25:54;103673.25;;;1.11;100.00
70546;BME280;58098;51.680;5.134;2023-01-23T04:28:19;103670.63;;;1.04;100.00
70546;BME280;58098;51.680;5.134;2023-01-23T04:30:45;103697.25;;;1.13;100.00
70546;BME280;58098;51.680;5.134;2023-01-23T04:33:10;103680.06;;;1.05;100.00
70546;BME280;58098;51.680;5.134;2023-01-23T04:35:36;103692.97;;;1.11;100.00
70546;BME280;58098;51.680;5.134;2023-01-23T04:38:01;103698.97;;;1.11;100.00
70546;BME280;58098;51.680;5.134;2023-01-23T04:40:27;103689.47;;;1.03;100.00
70546;BME280;58098;51.680;5.134;2023-01-23T04:42:52;103699.78;;;1.06;100.00
70546;BME280;58098;51.680;5.134;2023-01-23T04:45:18;103698.94;;;1.07;100.00
70546;BME280;58098;51.680;5.134;2023-01-23T04:47:43;103702.34;;;1.04;100.00
70546;BME280;58098;51.680;5.134;2023-01-23T04:50:09;103705.75;;;1.05;100.00
70546;BME280;58098;51.680;5.134;2023-01-23T04:52:35;103706.66;;;1.08;100.00
70546;BME280;58098;51.680;5.134;2023-01-23T04:55:01;103698.94;;;1.08;100.00
70546;BME280;58098;51.680;5.134;2023-01-23T04:57:26;103695.53;;;1.11;100.00
70546;BME280;58098;51.680;5.134;2023-01-23T04:59:51;103686.94;;;1.06;100.00
70546;BME280;58098;51.680;5.134;2023-01-23T05:02:17;103704.13;;;1.14;100.00
70546;BME280;58098;51.680;5.134;2023-01-23T05:04:42;103698.13;;;1.14;100.00
70546;BME280;58098;51.680;5.134;2023-01-23T05:07:08;103694.63;;;1.06;100.00
70546;BME280;58098;51.680;5.134;2023-01-23T05:09:36;103687.75;;;1.05;100.00
70546;BME280;58098;51.680;5.134;2023-01-23T05:12:02;103705.81;;;1.09;100.00
70546;BME280;58098;51.680;5.134;2023-01-23T05:14:27;103687.75;;;0.99;100.00
70546;BME280;58098;51.680;5.134;2023-01-23T05:16:53;103679.13;;;0.94;100.00
70546;BME280;58098;51.680;5.134;2023-01-23T05:19:18;103707.53;;;1.13;100.00
70546;BME280;58098;51.680;5.134;2023-01-23T05:21:43;103699.81;;;1.09;100.00
70546;BME280;58098;51.680;5.134;2023-01-23T05:24:09;103719.53;;;1.13;100.00
70546;BME280;58098;51.680;5.134;2023-01-23T05:26:34;103705.81;;;1.09;100.00
70546;BME280;58098;51.680;5.134;2023-01-23T05:29:00;103710.97;;;1.09;100.00
70546;BME280;58098;51.680;5.134;2023-01-23T05:31:26;103713.50;;;1.08;100.00
70546;BME280;58098;51.680;5.134;2023-01-23T05:33:51;103710.94;;;1.06;100.00
70546;BME280;58098;51.680;5.134;2023-01-23T05:36:16;103707.50;;;1.06;100.00
70546;BME280;58098;51.680;5.134;2023-01-23T05:38:42;103706.63;;;1.04;100.00
70546;BME280;58098;51.680;5.134;2023-01-23T05:41:07;103712.66;;;1.09;100.00
70546;BME280;58098;51.680;5.134;2023-01-23T05:43:32;103728.13;;;1.16;100.00
70546;BME280;58098;51.680;5.134;2023-01-23T05:45:59;103715.25;;;1.15;100.00
70546;BME280;58098;51.680;5.134;2023-01-23T05:48:25;103724.69;;;1.17;100.00
70546;BME280;58098;51.680;5.134;2023-01-23T05:50:50;103722.13;;;1.16;100.00
70546;BME280;58098;51.680;5.134;2023-01-23T05:53:16;103731.56;;;1.20;100.00
70546;BME280;58098;51.680;5.134;2023-01-23T05:55:41;103720.41;;;1.13;100.00
70546;BME280;58098;51.680;5.134;2023-01-23T05:58:06;103713.50;;;1.08;100.00
70546;BME280;58098;51.680;5.134;2023-01-23T06:00:32;103717.84;;;1.13;100.00
70546;BME280;58098;51.680;5.134;2023-01-23T06:02:57;103710.09;;;1.10;100.00
70546;BME280;58098;51.680;5.134;2023-01-23T06:05:22;103727.28;;;1.14;100.00
70546;BME280;58098;51.680;5.134;2023-01-23T06:07:48;103724.69;;;1.13;100.00
70546;BME280;58098;51.680;5.134;2023-01-23T06:10:13;103731.56;;;1.15;100.00
70546;BME280;58098;51.680;5.134;2023-01-23T06:12:39;103728.09;;;1.10;100.00
70546;BME280;58098;51.680;5.134;2023-01-23T06:15:05;103729.88;;;1.19;100.00
70546;BME280;58098;51.680;5.134;2023-01-23T06:17:30;103692.88;;;0.97;100.00
70546;BME280;58098;51.680;5.134;2023-01-23T06:19:55;103715.25;;;1.12;100.00
70546;BME280;58098;51.680;5.134;2023-01-23T06:22:22;103719.56;;;1.16;100.00
70546;BME280;58098;51.680;5.134;2023-01-23T06:24:47;103713.56;;;1.20;100.00
70546;BME280;58098;51.680;5.134;2023-01-23T06:27:13;103723.84;;;1.17;100.00
70546;BME280;58098;51.680;5.134;2023-01-23T06:29:38;103726.44;;;1.18;100.00
70546;BME280;58098;51.680;5.134;2023-01-23T06:32:03;103734.16;;;1.20;100.00
70546;BME280;58098;51.680;5.134;2023-01-23T06:34:29;103738.47;;;1.27;100.00
70546;BME280;58098;51.680;5.134;2023-01-23T06:36:54;103724.72;;;1.19;100.00
70546;BME280;58098;51.680;5.134;2023-01-23T06:39:19;103731.63;;;1.26;100.00
70546;BME280;58098;51.680;5.134;2023-01-23T06:41:45;103715.31;;;1.21;100.00
70546;BME280;58098;51.680;5.134;2023-01-23T06:44:10;103723.91;;;1.27;100.00
70546;BME280;58098;51.680;5.134;2023-01-23T06:46:35;103717.84;;;1.18;100.00
70546;BME280;58098;51.680;5.134;2023-01-23T06:49:01;103729.00;;;1.20;100.00
70546;BME280;58098;51.680;5.134;2023-01-23T06:51:27;103730.72;;;1.21;100.00
70546;BME280;58098;51.680;5.134;2023-01-23T06:53:52;103745.34;;;1.26;100.00
70546;BME280;58098;51.680;5.134;2023-01-23T06:56:17;103740.16;;;1.22;100.00
70546;BME280;58098;51.680;5.134;2023-01-23T06:58:44;103750.53;;;1.31;100.00
70546;BME280;58098;51.680;5.134;2023-01-23T07:01:12;103737.59;;;1.25;100.00
70546;BME280;58098;51.680;5.134;2023-01-23T07:03:39;103753.94;;;1.31;100.00
70546;BME280;58098;51.680;5.134;2023-01-23T07:06:05;103753.91;;;1.27;100.00
70546;BME280;58098;51.680;5.134;2023-01-23T07:08:34;103768.53;;;1.37;100.00
70546;BME280;58098;51.680;5.134;2023-01-23T07:11:00;103774.56;;;1.36;100.00
70546;BME280;58098;51.680;5.134;2023-01-23T07:13:26;103768.53;;;1.34;100.00
70546;BME280;58098;51.680;5.134;2023-01-23T07:15:52;103778.03;;;1.41;100.00
70546;BME280;58098;51.680;5.134;2023-01-23T07:18:17;103768.53;;;1.37;100.00
70546;BME280;58098;51.680;5.134;2023-01-23T07:20:43;103759.91;;;1.26;100.00
70546;BME280;58098;51.680;5.134;2023-01-23T07:23:09;103788.28;;;1.40;100.00
70546;BME280;58098;51.680;5.134;2023-01-23T07:25:34;103787.41;;;1.39;100.00
70546;BME280;58098;51.680;5.134;2023-01-23T07:27:59;103780.50;;;1.32;100.00
70546;BME280;58098;51.680;5.134;2023-01-23T07:30:25;103776.22;;;1.28;100.00
70546;BME280;58098;51.680;5.134;2023-01-23T07:32:50;103786.56;;;1.37;100.00
70546;BME280;58098;51.680;5.134;2023-01-23T07:35:16;103784.78;;;1.31;100.00
70546;BME280;58098;51.680;5.134;2023-01-23T07:37:41;103797.69;;;1.39;100.00
70546;BME280;58098;51.680;5.134;2023-01-23T07:40:07;103793.44;;;1.40;100.00
70546;BME280;58098;51.680;5.134;2023-01-23T07:42:33;103782.25;;;1.33;100.00
70546;BME280;58098;51.680;5.134;2023-01-23T07:44:58;103793.38;;;1.32;100.00
70546;BME280;58098;51.680;5.134;2023-01-23T07:47:23;103781.34;;;1.28;100.00
70546;BME280;58098;51.680;5.134;2023-01-23T07:49:48;103784.78;;;1.31;100.00
70546;BME280;58098;51.680;5.134;2023-01-23T07:52:14;103793.41;;;1.37;100.00
70546;BME280;58098;51.680;5.134;2023-01-23T07:54:39;103785.66;;;1.32;100.00
70546;BME280;58098;51.680;5.134;2023-01-23T07:57:04;103801.13;;;1.35;100.00
70546;BME280;58098;51.680;5.134;2023-01-23T07:59:30;103792.56;;;1.36;100.00
70546;BME280;58098;51.680;5.134;2023-01-23T08:01:55;103790.81;;;1.35;100.00
70546;BME280;58098;51.680;5.134;2023-01-23T08:04:20;103802.00;;;1.42;100.00
70546;BME280;58098;51.680;5.134;2023-01-23T08:06:46;103802.03;;;1.43;100.00
70546;BME280;58098;51.680;5.134;2023-01-23T08:09:11;103793.44;;;1.44;100.00
70546;BME280;58098;51.680;5.134;2023-01-23T08:11:37;103798.59;;;1.44;100.00
70546;BME280;58098;51.680;5.134;2023-01-23T08:14:02;103806.41;;;1.53;100.00
70546;BME280;58098;51.680;5.134;2023-01-23T08:16:28;103800.34;;;1.50;100.00
70546;BME280;58098;51.680;5.134;2023-01-23T08:18:53;103802.09;;;1.52;100.00
70546;BME280;58098;51.680;5.134;2023-01-23T08:21:19;103815.84;;;1.59;100.00
70546;BME280;58098;51.680;5.134;2023-01-23T08:23:44;103829.66;;;1.70;100.00
70546;BME280;58098;51.680;5.134;2023-01-23T08:26:12;103815.03;;;1.63;100.00
70546;BME280;58098;51.680;5.134;2023-01-23T08:28:40;103826.22;;;1.74;100.00
70546;BME280;58098;51.680;5.134;2023-01-23T08:31:07;103823.66;;;1.75;100.00
70546;BME280;58098;51.680;5.134;2023-01-23T08:33:34;103815.06;;;1.73;100.00
70546;BME280;58098;51.680;5.134;2023-01-23T08:36:00;103794.44;;;1.63;100.00
70546;BME280;58098;51.680;5.134;2023-01-23T08:38:26;103809.09;;;1.80;100.00
70546;BME280;58098;51.680;5.134;2023-01-23T08:40:52;103823.75;;;1.93;100.00
70546;BME280;58098;51.680;5.134;2023-01-23T08:43:18;103820.31;;;1.90;100.00
70546;BME280;58098;51.680;5.134;2023-01-23T08:45:48;103832.38;;;1.98;100.00
70546;BME280;58098;51.680;5.134;2023-01-23T08:48:14;103828.94;;;2.03;100.00
70546;BME280;58098;51.680;5.134;2023-01-23T08:50:39;103841.81;;;2.03;100.00
70546;BME280;58098;51.680;5.134;2023-01-23T08:53:05;103841.00;;;2.07;100.00
70546;BME280;58098;51.680;5.134;2023-01-23T08:55:31;103847.00;;;2.10;100.00
70546;BME280;58098;51.680;5.134;2023-01-23T08:57:57;103840.19;;;2.14;100.00
70546;BME280;58098;51.680;5.134;2023-01-23T09:00:23;103830.72;;;2.07;100.00
70546;BME280;58098;51.680;5.134;2023-01-23T09:02:49;103848.78;;;2.19;100.00
70546;BME280;58098;51.680;5.134;2023-01-23T09:05:15;103828.16;;;2.14;100.00
70546;BME280;58098;51.680;5.134;2023-01-23T09:07:41;103835.91;;;2.25;100.00
70546;BME280;58098;51.680;5.134;2023-01-23T09:10:06;103816.97;;;2.17;100.00
70546;BME280;58098;51.680;5.134;2023-01-23T09:12:32;103841.97;;;2.33;100.00
70546;BME280;58098;51.680;5.134;2023-01-23T09:14:58;103838.56;;;2.38;100.00
70546;BME280;58098;51.680;5.134;2023-01-23T09:17:23;103817.94;;;2.35;100.00
70546;BME280;58098;51.680;5.134;2023-01-23T09:19:49;103822.25;;;2.41;100.00
70546;BME280;58098;51.680;5.134;2023-01-23T09:22:15;103836.00;;;2.52;100.00
70546;BME280;58098;51.680;5.134;2023-01-23T09:24:40;103834.28;;;2.54;100.00
70546;BME280;58098;51.680;5.134;2023-01-23T09:27:06;103842.03;;;2.58;100.00
70546;BME280;58098;51.680;5.134;2023-01-23T09:29:32;103835.16;;;2.54;100.00
70546;BME280;58098;51.680;5.134;2023-01-23T09:31:57;103844.59;;;2.58;100.00
70546;BME280;58098;51.680;5.134;2023-01-23T09:34:23;103843.75;;;2.56;100.00
70546;BME280;58098;51.680;5.134;2023-01-23T09:36:48;103852.34;;;2.61;100.00
70546;BME280;58098;51.680;5.134;2023-01-23T09:39:13;103844.63;;;2.63;100.00
70546;BME280;58098;51.680;5.134;2023-01-23T09:41:40;103858.41;;;2.70;100.00
70546;BME280;58098;51.680;5.134;2023-01-23T09:46:47;103848.94;;;2.70;100.00
70546;BME280;58098;51.680;5.134;2023-01-23T09:49:18;103853.25;;;2.83;100.00
70546;BME280;58098;51.680;5.134;2023-01-23T09:51:58;103855.00;;;2.92;100.00
70546;BME280;58098;51.680;5.134;2023-01-23T09:54:44;103858.44;;;3.01;100.00
70546;BME280;58098;51.680;5.134;2023-01-23T09:57:14;103844.69;;;2.96;100.00
70546;BME280;58098;51.680;5.134;2023-01-23T09:59:43;103861.88;;;3.12;100.00
70546;BME280;58098;51.680;5.134;2023-01-23T10:02:14;103839.53;;;3.13;100.00
70546;BME280;58098;51.680;5.134;2023-01-23T10:04:41;103858.47;;;3.28;100.00
70546;BME280;58098;51.680;5.134;2023-01-23T10:12:55;103863.59;;;3.36;100.00
70546;BME280;58098;51.680;5.134;2023-01-23T10:18:37;103851.56;;;3.43;100.00
70546;BME280;58098;51.680;5.134;2023-01-23T10:21:29;103857.59;;;3.48;100.00
70546;BME280;58098;51.680;5.134;2023-01-23T10:24:19;103868.78;;;3.41;100.00
70546;BME280;58098;51.680;5.134;2023-01-23T10:26:48;103857.59;;;3.32;100.00
70546;BME280;58098;51.680;5.134;2023-01-23T10:29:27;103867.91;;;3.37;100.00
70546;BME280;58098;51.680;5.134;2023-01-23T10:31:56;103850.72;;;3.28;100.00
70546;BME280;58098;51.680;5.134;2023-01-23T10:34:27;103850.72;;;3.38;100.00
70546;BME280;58098;51.680;5.134;2023-01-23T10:37:38;103858.44;;;3.50;100.00
70546;BME280;58098;51.680;5.134;2023-01-23T10:40:13;103854.13;;;3.49;100.00
70546;BME280;58098;51.680;5.134;2023-01-23T10:42:39;103856.72;;;3.50;100.00
70546;BME280;58098;51.680;5.134;2023-01-23T10:45:05;103856.72;;;3.52;100.00
70546;BME280;58098;51.680;5.134;2023-01-23T10:47:42;103846.41;;;3.52;100.00
70546;BME280;58098;51.680;5.134;2023-01-23T10:50:08;103835.22;;;3.44;100.00
70546;BME280;58098;51.680;5.134;2023-01-23T10:55:04;103840.38;;;3.48;100.00
70546;BME280;58098;51.680;5.134;2023-01-23T10:57:42;103828.34;;;3.35;100.00
70546;BME280;58098;51.680;5.134;2023-01-23T11:00:36;103842.09;;;3.48;100.00
70546;BME280;58098;51.680;5.134;2023-01-23T11:05:50;103842.09;;;3.49;100.00
70546;BME280;58098;51.680;5.134;2023-01-23T11:08:27;103846.41;;;3.55;100.00
70546;BME280;58098;51.680;5.134;2023-01-23T11:11:16;103845.53;;;3.51;100.00
70546;BME280;58098;51.680;5.134;2023-01-23T11:13:44;103840.38;;;3.48;100.00
70546;BME280;58098;51.680;5.134;2023-01-23T11:16:15;103840.38;;;3.42;100.00
70546;BME280;58098;51.680;5.134;2023-01-23T11:18:42;103846.41;;;3.43;100.00
70546;BME280;58098;51.680;5.134;2023-01-23T11:21:28;103827.47;;;3.31;100.00
70546;BME280;58098;51.680;5.134;2023-01-23T11:26:42;103846.41;;;3.52;100.00
70546;BME280;58098;51.680;5.134;2023-01-23T11:29:57;103854.97;;;3.66;100.00
70546;BME280;58098;51.680;5.134;2023-01-23T11:32:19;103851.56;;;3.58;100.00
70546;BME280;58098;51.680;5.134;2023-01-23T11:34:49;103843.81;;;3.52;100.00
70546;BME280;58098;51.680;5.134;2023-01-23T11:37:20;103871.31;;;3.68;100.00
70546;BME280;58098;51.680;5.134;2023-01-23T11:39:58;103867.03;;;3.70;100.00
70546;BME280;58098;51.680;5.134;2023-01-23T11:42:26;103871.31;;;3.68;100.00
70546;BME280;58098;51.680;5.134;2023-01-23T11:44:52;103851.53;;;3.61;100.00
70546;BME280;58098;51.680;5.134;2023-01-23T11:47:31;103861.84;;;3.74;100.00
70546;BME280;58098;51.680;5.134;2023-01-23T11:50:33;103869.59;;;3.79;100.00
70546;BME280;58098;51.680;5.134;2023-01-23T11:53:06;103863.53;;;3.89;100.00
70546;BME280;58098;51.680;5.134;2023-01-23T11:55:44;103864.38;;;3.92;100.00
70546;BME280;58098;51.680;5.134;2023-01-23T12:14:22;103835.97;;;3.94;100.00
70546;BME280;58098;51.680;5.134;2023-01-23T12:25:35;103849.69;;;4.11;100.00
70546;BME280;58098;51.680;5.134;2023-01-23T12:39:23;103841.06;;;4.15;100.00
70546;BME280;58098;51.680;5.134;2023-01-23T12:42:00;103841.06;;;4.09;100.00
70546;BME280;58098;51.680;5.134;2023-01-23T12:44:33;103848.00;;;4.09;100.00
70546;BME280;58098;51.680;5.134;2023-01-23T12:47:22;103838.53;;;4.00;100.00
70546;BME280;58098;51.680;5.134;2023-01-23T12:49:53;103844.53;;;4.02;100.00
70546;BME280;58098;51.680;5.134;2023-01-23T12:52:32;103847.13;;;4.02;100.00
70546;BME280;58098;51.680;5.134;2023-01-23T12:55:18;103843.69;;;4.01;100.00
70546;BME280;58098;51.680;5.134;2023-01-23T12:57:45;103835.09;;;3.95;100.00
70546;BME280;58098;51.680;5.134;2023-01-23T13:16:55;103854.00;;;4.08;100.00
70546;BME280;58098;51.680;5.134;2023-01-23T13:19:31;103850.56;;;4.03;100.00
70546;BME280;58098;51.680;5.134;2023-01-23T13:22:23;103848.84;;;4.11;100.00
70546;BME280;58098;51.680;5.134;2023-01-23T13:24:53;103842.84;;;4.01;100.00
70546;BME280;58098;51.680;5.134;2023-01-23T13:27:47;103866.03;;;4.15;100.00
70546;BME280;58098;51.680;5.134;2023-01-23T13:32:58;103845.38;;;4.12;100.00
70546;BME280;58098;51.680;5.134;2023-01-23T13:46:40;103857.41;;;4.23;100.00
70546;BME280;58098;51.680;5.134;2023-01-23T13:52:16;103850.53;;;4.15;100.00
70546;BME280;58098;51.680;5.134;2023-01-23T13:55:02;103857.44;;;4.16;100.00
70546;BME280;58098;51.680;5.134;2023-01-23T13:57:47;103866.94;;;4.08;100.00
70546;BME280;58098;51.680;5.134;2023-01-23T14:00:18;103851.47;;;3.94;100.00
70546;BME280;58098;51.680;5.134;2023-01-23T14:02:53;103868.69;;;3.93;100.00
70546;BME280;58098;51.680;5.134;2023-01-23T14:05:40;103854.97;;;3.72;100.00
70546;BME280;58098;51.680;5.134;2023-01-23T14:08:15;103861.84;;;3.79;100.00
70546;BME280;58098;51.680;5.134;2023-01-23T14:10:45;103859.25;;;3.77;100.00
70546;BME280;58098;51.680;5.134;2023-01-23T14:13:20;103853.25;;;3.68;100.00
70546;BME280;58098;51.680;5.134;2023-01-23T14:15:53;103830.91;;;3.58;100.00
70546;BME280;58098;51.680;5.134;2023-01-23T14:23:50;103849.81;;;3.69;100.00
70546;BME280;58098;51.680;5.134;2023-01-23T14:26:17;103848.06;;;3.71;100.00
70546;BME280;58098;51.680;5.134;2023-01-23T14:28:53;103840.34;;;3.68;100.00
70546;BME280;58098;51.680;5.134;2023-01-23T14:31:27;103825.72;;;3.70;100.00
70546;BME280;58098;51.680;5.134;2023-01-23T14:34:03;103829.13;;;3.73;100.00
70546;BME280;58098;51.680;5.134;2023-01-23T14:36:31;103811.09;;;3.72;100.00
70546;BME280;58098;51.680;5.134;2023-01-23T14:38:59;103810.22;;;3.67;100.00
70546;BME280;58098;51.680;5.134;2023-01-23T14:41:28;103801.59;;;3.68;100.00